Time;durP1;ratioP1;P1;durP2;ratioP2;P2;SDS_P1;SDS_P2;PMS_P1;PMS_P2;Temp;Humidity;BMP_temperature;BMP_pressure;BME280_temperature;BME280_humidity;BME280_pressure;Samples;Min_cycle;Max_cycle;Signal;HPM_P1;HPM_P2
2021/12/17 00:02:06;;;;;;;7.17;6.47;;;;;;;4.27;100.00;99488.97;1714965;82;21026;-77
2021/12/17 00:04:03;;;;;;;7.58;6.78;;;;;;;4.29;100.00;99486.38;1731120;81;20986;-77
2021/12/17 00:08:54;;;;;;;8.20;7.30;;;;;;;4.31;100.00;99488.05;1726381;81;21039;-77
2021/12/17 00:11:20;;;;;;;7.55;6.67;;;;;;;4.29;100.00;99477.36;1727719;82;21003;-77
2021/12/17 00:13:47;;;;;;;7.67;6.87;;;;;;;4.28;100.00;99481.66;1698077;83;21034;-77
2021/12/17 00:16:20;;;;;;;7.97;7.12;;;;;;;4.28;100.00;99475.66;1719702;82;21426;-77
2021/12/17 00:19:02;;;;;;;8.18;6.78;;;;;;;4.27;100.00;99472.67;1727277;83;21015;-77
2021/12/17 00:48:48;;;;;;;7.45;5.75;;;;;;;4.13;100.00;99488.34;1720998;82;22235;-77
2021/12/17 00:54:06;;;;;;;7.97;5.92;;;;;;;4.10;100.00;99487.95;1729742;81;21433;-76
2021/12/17 00:56:32;;;;;;;8.28;6.17;;;;;;;4.09;100.00;99475.95;1720727;82;20991;-76
2021/12/17 00:58:59;;;;;;;6.15;5.10;;;;;;;4.09;100.00;99469.52;1699717;83;21075;-76
2021/12/17 01:01:25;;;;;;;7.97;5.78;;;;;;;4.08;100.00;99459.24;1728451;81;21548;-76
2021/12/17 01:03:53;;;;;;;7.15;6.17;;;;;;;4.06;100.00;99469.99;1698148;82;20946;-75
2021/12/17 01:06:20;;;;;;;7.47;5.97;;;;;;;4.05;100.00;99473.44;1721449;82;21453;-76
2021/12/17 01:08:46;;;;;;;7.25;5.92;;;;;;;4.03;100.00;99467.46;1700704;83;21026;-76
2021/12/17 01:11:16;;;;;;;5.78;5.17;;;;;;;4.03;99.98;99468.75;1727738;81;21065;-76
2021/12/17 01:13:48;;;;;;;6.50;4.78;;;;;;;3.99;99.85;99470.55;1730659;82;21105;-76
2021/12/17 01:16:28;;;;;;;6.72;5.03;;;;;;;3.99;99.81;99458.97;1723792;81;21531;-76
2021/12/17 01:21:40;;;;;;;5.20;3.77;;;;;;;4.03;99.08;99456.73;1721133;82;21506;-76
2021/12/17 01:24:30;;;;;;;4.65;3.70;;;;;;;4.05;98.79;99446.41;1717813;82;21430;-76
2021/12/17 01:35:44;;;;;;;3.70;2.80;;;;;;;3.98;97.77;99443.11;1729319;81;21766;-76
2021/12/17 01:39:16;;;;;;;5.00;3.25;;;;;;;3.95;97.78;99448.30;1721396;81;21105;-76
2021/12/17 01:43:14;;;;;;;4.83;2.75;;;;;;;3.97;97.54;99439.27;1699411;82;21038;-76
2021/12/17 01:45:41;;;;;;;3.92;2.62;;;;;;;3.97;97.46;99438.83;1734544;82;20997;-76
2021/12/17 01:48:14;;;;;;;3.75;2.77;;;;;;;3.97;97.19;99440.12;1724341;82;21011;-76
2021/12/17 02:01:08;;;;;;;6.00;3.17;;;;;;;3.84;96.86;99430.86;1695725;82;21596;-77
2021/12/17 02:03:35;;;;;;;4.75;3.08;;;;;;;3.84;97.06;99430.02;1717207;82;21017;-77
2021/12/17 02:06:03;;;;;;;4.97;3.60;;;;;;;3.85;96.95;99420.98;1728063;81;21163;-76
2021/12/17 02:08:31;;;;;;;3.77;2.65;;;;;;;3.84;96.73;99425.72;1732864;82;21003;-76
2021/12/17 02:22:50;;;;;;;7.55;6.05;;;;;;;3.68;97.04;99425.10;1701796;82;21014;-77
2021/12/17 02:32:44;;;;;;;9.10;5.78;;;;;;;3.66;97.40;99420.84;1734899;81;21963;-77
2021/12/17 02:37:42;;;;;;;12.80;8.18;;;;;;;3.69;97.18;99416.52;1737510;81;20955;-77
2021/12/17 02:45:34;;;;;;;8.68;5.58;;;;;;;3.71;97.09;99411.35;1698563;82;21014;-77
2021/12/17 02:48:15;;;;;;;10.78;6.80;;;;;;;3.73;96.98;99412.18;1702996;82;21104;-77
2021/12/17 02:50:53;;;;;;;13.45;8.03;;;;;;;3.73;97.08;99409.17;1704186;82;21432;-77
2021/12/17 02:53:20;;;;;;;19.12;10.18;;;;;;;3.76;96.85;99407.00;1743187;81;21026;-77
2021/12/17 02:56:02;;;;;;;21.45;12.40;;;;;;;3.76;96.78;99409.13;1724708;82;21069;-77
2021/12/17 02:58:30;;;;;;;21.93;12.95;;;;;;;3.78;96.63;99412.53;1739297;81;21483;-77
2021/12/17 03:00:59;;;;;;;12.00;7.33;;;;;;;3.79;96.64;99411.66;1730177;81;21034;-77
2021/12/17 03:03:27;;;;;;;8.15;5.30;;;;;;;3.81;96.52;99402.61;1736031;81;21006;-77
2021/12/17 03:05:54;;;;;;;12.03;8.45;;;;;;;3.80;96.41;99404.33;1733592;82;21097;-77
2021/12/17 03:08:21;;;;;;;8.45;6.28;;;;;;;3.83;96.44;99402.16;1725211;82;21046;-77
2021/12/17 03:10:48;;;;;;;5.97;3.65;;;;;;;3.85;96.20;99412.42;1697777;82;21795;-77
2021/12/17 03:13:17;;;;;;;11.57;7.03;;;;;;;3.83;95.78;99400.86;1722990;82;20998;-77
2021/12/17 03:15:55;;;;;;;9.08;6.08;;;;;;;3.80;95.87;99401.75;1724561;82;21031;-77
2021/12/17 03:23:45;;;;;;;16.67;8.38;;;;;;;3.77;95.87;99399.70;1717329;82;21980;-77
2021/12/17 03:26:21;;;;;;;14.28;8.73;;;;;;;3.76;95.75;99394.13;1731439;82;21018;-77
2021/12/17 03:28:51;;;;;;;8.03;4.67;;;;;;;3.75;95.85;99398.86;1704675;81;20954;-77
2021/12/17 03:31:19;;;;;;;6.58;4.80;;;;;;;3.74;95.69;99394.16;1738982;81;21502;-77
2021/12/17 03:33:48;;;;;;;9.55;4.67;;;;;;;3.74;95.65;99395.88;1694224;82;21013;-77
2021/12/17 03:36:17;;;;;;;5.28;2.95;;;;;;;3.75;95.77;99392.44;1722955;81;21786;-77
2021/12/17 03:38:46;;;;;;;5.92;2.80;;;;;;;3.77;95.55;99399.26;1709421;82;21089;-77
2021/12/17 03:43:48;;;;;;;5.05;2.85;;;;;;;3.74;95.25;99392.02;1724552;82;21558;-77
2021/12/17 03:46:16;;;;;;;4.50;2.10;;;;;;;3.70;95.29;99392.93;1719675;82;21121;-77
2021/12/17 03:48:43;;;;;;;3.58;1.70;;;;;;;3.68;95.13;99388.24;1726100;81;21108;-77
2021/12/17 03:51:14;;;;;;;3.33;1.75;;;;;;;3.64;95.08;99386.14;1732298;81;21047;-77
2021/12/17 03:53:43;;;;;;;4.08;1.80;;;;;;;3.62;95.19;99380.17;1691470;82;21097;-77
2021/12/17 03:56:10;;;;;;;3.52;1.67;;;;;;;3.60;95.10;99375.48;1724998;82;21199;-77
2021/12/17 03:58:37;;;;;;;3.80;1.95;;;;;;;3.59;95.01;99380.69;1706991;82;21015;-77
2021/12/17 04:01:04;;;;;;;4.30;1.80;;;;;;;3.58;95.21;99377.26;1721443;81;21533;-77
2021/12/17 04:03:31;;;;;;;8.38;2.30;;;;;;;3.57;95.32;99371.70;1709312;82;21025;-77
2021/12/17 04:06:00;;;;;;;4.17;2.08;;;;;;;3.56;95.61;99373.01;1722685;81;21617;-77
2021/12/17 04:08:36;;;;;;;2.67;1.70;;;;;;;3.55;95.73;99372.16;1693740;81;21019;-76
2021/12/17 04:11:19;;;;;;;2.90;1.67;;;;;;;3.55;95.56;99368.73;1721662;82;21218;-76
2021/12/17 04:13:57;;;;;;;4.72;1.95;;;;;;;3.51;95.37;99368.36;1724582;82;21149;-75
2021/12/17 04:16:21;;;;;;;4.37;2.12;;;;;;;3.49;95.55;99374.80;1720322;81;21570;-77
2021/12/17 04:18:45;;;;;;;2.30;1.47;;;;;;;3.52;95.52;99372.20;1731339;81;21073;-77
2021/12/17 04:21:15;;;;;;;5.62;2.90;;;;;;;3.55;95.33;99375.16;1716307;82;20997;-77
2021/12/17 04:23:44;;;;;;;5.50;3.12;;;;;;;3.56;95.19;99373.86;1693585;83;21418;-77
2021/12/17 04:26:12;;;;;;;5.80;3.10;;;;;;;3.57;94.83;99369.13;1718273;82;21702;-77
2021/12/17 04:28:44;;;;;;;5.70;3.65;;;;;;;3.57;94.56;99370.41;1721089;82;20979;-77
2021/12/17 04:31:07;;;;;;;6.37;4.03;;;;;;;3.55;94.43;99368.73;1724701;82;20983;-77
2021/12/17 04:33:38;;;;;;;7.95;4.30;;;;;;;3.52;94.57;99363.63;1730816;81;20975;-77
2021/12/17 04:36:05;;;;;;;6.45;4.00;;;;;;;3.52;94.62;99363.20;1732563;82;21058;-77
2021/12/17 04:38:33;;;;;;;6.42;3.42;;;;;;;3.51;94.52;99359.36;1733125;81;21175;-77
2021/12/17 04:41:28;;;;;;;6.12;2.80;;;;;;;3.52;94.41;99364.48;1700935;82;20963;-77
2021/12/17 04:43:41;;;;;;;5.37;2.47;;;;;;;3.51;94.29;99360.64;1716216;81;21521;-77
2021/12/17 04:46:18;;;;;;;4.20;2.62;;;;;;;3.53;94.48;99366.62;1738053;81;21089;-77
2021/12/17 04:59:34;;;;;;;5.45;2.77;;;;;;;3.52;93.95;99356.77;1729317;81;20955;-77
2021/12/17 05:02:02;;;;;;;4.47;2.15;;;;;;;3.51;93.93;99356.79;1717890;82;21555;-77
2021/12/17 05:04:31;;;;;;;4.17;2.62;;;;;;;3.49;93.87;99352.95;1723697;81;21127;-77
2021/12/17 05:06:58;;;;;;;4.37;2.60;;;;;;;3.50;93.86;99349.52;1726120;82;21055;-77
2021/12/17 05:09:34;;;;;;;5.75;2.40;;;;;;;3.51;93.79;99352.49;1727219;81;21026;-77
2021/12/17 05:20:27;;;;;;;8.78;3.80;;;;;;;3.48;93.61;99352.97;1727423;81;21025;-78
2021/12/17 05:22:42;;;;;;;7.62;3.72;;;;;;;3.48;93.69;99353.82;1734921;82;21071;-77
2021/12/17 05:25:08;;;;;;;6.37;3.05;;;;;;;3.49;93.81;99352.10;1730932;81;21065;-78
2021/12/17 05:27:36;;;;;;;6.53;2.65;;;;;;;3.50;93.71;99348.22;1696017;82;21584;-77
2021/12/17 05:30:04;;;;;;;6.58;2.77;;;;;;;3.52;93.71;99354.63;1726867;82;21140;-77
2021/12/17 05:32:31;;;;;;;4.05;2.00;;;;;;;3.54;93.47;99350.31;1698813;82;20951;-77
2021/12/17 05:34:59;;;;;;;6.72;2.77;;;;;;;3.53;93.15;99343.04;1723281;82;21509;-77
2021/12/17 05:37:28;;;;;;;7.25;3.12;;;;;;;3.52;93.29;99347.77;1729225;81;21466;-77
2021/12/17 05:39:54;;;;;;;7.78;3.17;;;;;;;3.52;93.31;99338.77;1743591;81;21525;-77
2021/12/17 05:42:23;;;;;;;8.35;2.83;;;;;;;3.52;93.20;99342.62;1728281;81;21152;-77
2021/12/17 05:44:56;;;;;;;5.10;2.52;;;;;;;3.52;93.04;99341.77;1726892;81;21687;-77
2021/12/17 05:47:20;;;;;;;9.28;4.85;;;;;;;3.51;93.39;99348.64;1730856;81;21137;-78
2021/12/17 05:49:47;;;;;;;5.55;3.40;;;;;;;3.53;93.25;99337.89;1730983;81;21072;-77
2021/12/17 05:52:14;;;;;;;6.33;2.92;;;;;;;3.54;93.10;99337.46;1729068;82;20990;-77
2021/12/17 05:54:40;;;;;;;5.28;2.92;;;;;;;3.54;92.79;99343.45;1721724;82;21509;-77
2021/12/17 05:57:07;;;;;;;13.88;5.35;;;;;;;3.54;92.64;99337.02;1707220;82;21002;-77
2021/12/17 05:59:35;;;;;;;7.85;3.65;;;;;;;3.53;92.68;99335.77;1710014;82;21000;-77
2021/12/17 06:02:08;;;;;;;9.40;5.05;;;;;;;3.53;92.67;99334.05;1731695;81;20975;-78
2021/12/17 06:04:32;;;;;;;7.33;3.05;;;;;;;3.56;92.68;99343.44;1726971;81;20985;-78
2021/12/17 06:07:04;;;;;;;7.67;3.92;;;;;;;3.58;92.34;99345.55;1715213;81;22004;-77
2021/12/17 06:09:32;;;;;;;11.38;4.83;;;;;;;3.59;92.36;99341.67;1698075;83;21026;-78
2021/12/17 06:12:03;;;;;;;7.75;3.83;;;;;;;3.59;92.23;99342.11;1686186;82;21060;-78
2021/12/17 06:14:32;;;;;;;10.38;3.85;;;;;;;3.60;92.21;99345.06;1692709;83;20981;-77
2021/12/17 06:17:04;;;;;;;7.12;2.95;;;;;;;3.60;92.03;99343.34;1673469;84;21090;-77
2021/12/17 06:19:32;;;;;;;6.67;2.95;;;;;;;3.61;91.81;99348.90;1649712;84;21093;-77
2021/12/17 06:21:59;;;;;;;24.77;14.05;;;;;;;3.60;91.57;99338.20;1671730;84;22127;-77
2021/12/17 06:24:27;;;;;;;13.75;7.40;;;;;;;3.62;91.72;99335.60;1669896;83;21113;-78
2021/12/17 06:26:54;;;;;;;6.78;4.50;;;;;;;3.63;91.57;99338.59;1715780;81;21068;-78
2021/12/17 06:29:21;;;;;;;5.20;3.52;;;;;;;3.64;91.08;99343.71;1726532;81;21107;-77
2021/12/17 06:31:49;;;;;;;8.95;4.53;;;;;;;3.64;91.02;99332.58;1719356;82;21140;-78
2021/12/17 06:34:16;;;;;;;11.22;7.45;;;;;;;3.65;91.17;99341.98;1730188;81;21518;-77
2021/12/17 06:36:42;;;;;;;6.62;3.90;;;;;;;3.66;91.21;99339.39;1723640;81;20973;-77
2021/12/17 06:39:09;;;;;;;7.58;4.28;;;;;;;3.65;91.12;99337.70;1697820;83;21022;-77
2021/12/17 06:41:38;;;;;;;9.18;5.37;;;;;;;3.67;91.05;99338.52;1699603;81;21008;-77
2021/12/17 06:44:07;;;;;;;8.78;3.50;;;;;;;3.68;91.03;99336.37;1724875;82;21085;-76
2021/12/17 06:46:55;;;;;;;12.00;7.00;;;;;;;3.69;90.87;99339.35;1731403;81;21045;-76
2021/12/17 06:49:22;;;;;;;11.88;7.62;;;;;;;3.72;90.95;99338.02;1737722;82;21430;-77
2021/12/17 07:06:14;;;;;;;12.68;7.53;;;;;;;3.69;91.22;99338.06;1666225;84;20970;-79
2021/12/17 07:11:54;;;;;;;;;;;;;;;3.66;91.63;99328.26;1714240;81;21574;-77
2021/12/17 07:20:33;;;;;;;9.48;4.80;;;;;;;3.74;91.48;99320.00;1713977;81;21042;-80
2021/12/17 07:22:41;;;;;;;5.53;3.95;;;;;;;3.78;91.35;99328.08;1712892;81;21109;-79
2021/12/17 07:32:01;;;;;;;5.80;2.83;;;;;;;3.81;91.56;99328.00;1674509;84;21141;-78
2021/12/17 07:33:22;;;;;;;7.75;3.17;;;;;;;3.77;91.48;99331.09;1674388;83;20991;-79
2021/12/17 07:35:55;;;;;;;6.62;3.50;;;;;;;3.72;92.14;99329.45;1707624;83;20963;-78
2021/12/17 07:39:07;;;;;;;4.90;3.20;;;;;;;3.70;92.48;99331.20;1696799;82;21286;-78
2021/12/17 07:40:51;;;;;;;7.30;3.20;;;;;;;3.70;92.57;99332.05;1689717;81;21192;-76
2021/12/17 07:43:34;;;;;;;5.00;2.65;;;;;;;3.68;92.55;99330.37;1711943;81;21045;-80
2021/12/17 07:45:48;;;;;;;7.37;5.17;;;;;;;3.66;92.62;99322.67;1704705;81;20977;-80
2021/12/17 07:48:17;;;;;;;14.60;6.28;;;;;;;3.68;92.93;99338.94;1712528;81;21211;-80
2021/12/17 07:50:46;;;;;;;7.87;4.72;;;;;;;3.66;92.65;99341.97;1708797;82;21576;-79
2021/12/17 07:53:17;;;;;;;6.17;4.33;;;;;;;3.66;92.79;99334.69;1716455;81;21041;-80
2021/12/17 07:55:52;;;;;;;8.43;4.55;;;;;;;3.66;92.75;99330.39;1683082;82;21366;-80
2021/12/17 07:58:20;;;;;;;8.93;4.87;;;;;;;3.72;93.05;99338.02;1687687;82;21065;-80
2021/12/17 08:00:47;;;;;;;9.38;4.70;;;;;;;3.79;92.86;99333.64;1698846;83;21094;-81
2021/12/17 08:03:14;;;;;;;6.40;3.62;;;;;;;3.83;92.74;99339.55;1718037;82;21976;-80
2021/12/17 08:05:52;;;;;;;7.53;4.25;;;;;;;3.87;92.64;99335.63;1718798;82;21474;-80
2021/12/17 08:08:21;;;;;;;6.65;3.70;;;;;;;3.87;92.59;99340.77;1723951;81;21003;-79
2021/12/17 08:10:50;;;;;;;6.55;3.47;;;;;;;3.84;92.48;99325.39;1711409;82;21125;-79
2021/12/17 08:13:24;;;;;;;4.47;2.25;;;;;;;3.81;92.40;99330.58;1712591;82;21009;-79
2021/12/17 08:16:21;;;;;;;9.28;5.00;;;;;;;3.78;92.45;99328.93;1734118;81;21090;-79
2021/12/17 08:18:33;;;;;;;13.55;6.20;;;;;;;3.79;92.79;99334.48;1716019;81;21022;-80
2021/12/17 08:26:28;;;;;;;7.83;4.28;;;;;;;3.86;92.48;99321.50;1709060;83;21077;-78
2021/12/17 08:28:56;;;;;;;9.78;5.03;;;;;;;3.88;92.19;99314.61;1736895;81;22176;-78
2021/12/17 08:31:18;;;;;;;5.08;3.27;;;;;;;3.93;92.17;99317.52;1724793;81;21031;-79
2021/12/17 08:33:46;;;;;;;13.38;7.85;;;;;;;3.97;91.67;99321.75;1720371;81;21749;-80
2021/12/17 08:36:14;;;;;;;6.20;3.10;;;;;;;3.99;91.59;99314.01;1695504;82;20974;-79
2021/12/17 08:38:43;;;;;;;8.15;5.00;;;;;;;4.05;90.91;99326.31;1731125;82;20990;-79
2021/12/17 08:41:23;;;;;;;6.05;2.58;;;;;;;4.09;90.78;99312.52;1717455;81;21154;-79
2021/12/17 08:43:51;;;;;;;5.00;2.30;;;;;;;4.13;89.66;99311.59;1727622;80;20955;-76
2021/12/17 08:46:18;;;;;;;4.85;3.25;;;;;;;4.16;89.31;99323.56;1730900;81;20971;-78
2021/12/17 08:48:47;;;;;;;3.08;1.80;;;;;;;4.18;89.19;99302.95;1717523;81;21507;-76
2021/12/17 08:51:32;;;;;;;4.78;2.00;;;;;;;4.21;89.08;99301.57;1633264;86;21754;-78
2021/12/17 08:53:59;;;;;;;3.58;1.50;;;;;;;4.24;88.82;99295.09;1689206;81;21536;-77
2021/12/17 08:56:32;;;;;;;4.53;2.42;;;;;;;4.24;88.28;99301.52;1712695;82;21010;-85
2021/12/17 08:59:05;;;;;;;4.03;1.77;;;;;;;4.25;88.30;99298.07;1731231;81;21549;-78
2021/12/17 09:01:36;;;;;;;3.08;1.60;;;;;;;4.27;88.33;99291.17;1697541;82;20993;-76
2021/12/17 09:04:04;;;;;;;4.15;2.00;;;;;;;4.28;87.55;99295.01;1686407;83;21238;-74
2021/12/17 09:10:06;;;;;;;7.28;2.00;;;;;;;4.30;87.43;99297.12;1719615;80;21537;-76
2021/12/17 09:12:37;;;;;;;4.58;2.45;;;;;;;4.32;87.35;99277.78;1720267;82;21013;-77
2021/12/17 09:15:06;;;;;;;6.00;3.35;;;;;;;4.33;87.38;99282.91;1738112;82;20959;-77
2021/12/17 09:17:49;;;;;;;4.80;2.75;;;;;;;4.36;86.82;99278.14;1722259;81;23177;-78
2021/12/17 09:20:16;;;;;;;5.00;2.95;;;;;;;4.37;86.27;99275.53;1706879;81;21692;-77
2021/12/17 09:22:43;;;;;;;2.98;1.42;;;;;;;4.41;86.15;99277.58;1726352;81;20986;-80
2021/12/17 09:25:14;;;;;;;3.17;1.20;;;;;;;4.41;85.63;99271.14;1718520;81;21069;-78
2021/12/17 09:27:55;;;;;;;4.62;1.87;;;;;;;4.41;85.35;99273.28;1714197;81;21110;-78
2021/12/17 09:30:23;;;;;;;9.08;4.40;;;;;;;4.40;85.27;99264.30;1684684;82;20993;-79
2021/12/17 09:32:50;;;;;;;8.13;3.35;;;;;;;4.40;85.91;99266.44;1714996;82;21031;-80
2021/12/17 09:35:17;;;;;;;5.83;2.20;;;;;;;4.47;86.22;99259.45;1717798;82;21541;-79
2021/12/17 09:37:43;;;;;;;9.60;4.72;;;;;;;4.56;86.08;99266.16;1730105;81;21043;-79
2021/12/17 09:40:11;;;;;;;9.05;6.15;;;;;;;4.60;86.39;99262.61;1722343;80;20967;-79
2021/12/17 09:42:39;;;;;;;6.75;4.80;;;;;;;4.62;85.69;99255.27;1740563;80;21046;-77
2021/12/17 09:45:08;;;;;;;4.33;2.58;;;;;;;4.60;85.98;99257.45;1712786;81;21738;-89
2021/12/17 09:47:35;;;;;;;3.75;2.10;;;;;;;4.58;85.56;99257.52;1711371;82;21482;-80
2021/12/17 09:50:01;;;;;;;9.15;4.78;;;;;;;4.56;85.31;99252.83;1714353;81;21597;-80
2021/12/17 09:52:29;;;;;;;8.98;5.12;;;;;;;4.54;85.15;99267.91;1695746;82;20976;-81
2021/12/17 09:54:57;;;;;;;9.20;4.40;;;;;;;4.49;85.18;99260.27;1725444;81;21540;-78
2021/12/17 09:57:25;;;;;;;26.97;13.53;;;;;;;4.41;84.87;99256.55;1693081;81;21146;-79
2021/12/17 09:59:53;;;;;;;35.40;15.90;;;;;;;4.34;85.33;99253.70;1693835;81;21101;-77
2021/12/17 10:02:20;;;;;;;17.15;9.10;;;;;;;4.34;86.09;99254.99;1735372;81;20938;-77
2021/12/17 10:04:47;;;;;;;4.28;2.10;;;;;;;4.37;86.07;99255.38;1732613;81;21006;-78
2021/12/17 10:07:21;;;;;;;7.28;6.20;;;;;;;4.36;85.70;99249.81;1709393;81;21438;-82
2021/12/17 10:09:54;;;;;;;4.50;2.50;;;;;;;4.28;86.65;99240.95;1690522;82;21558;-88
2021/12/17 10:12:23;;;;;;;;;;;;;;;4.26;87.42;99246.55;1714503;81;21070;-81
2021/12/17 10:15:13;;;;;;;1.82;0.93;;;;;;;4.24;87.72;99248.75;1690987;83;20163;-78
2021/12/17 10:18:03;;;;;;;4.85;3.35;;;;;;;4.19;87.73;99245.44;1724878;81;21187;-78
2021/12/17 10:20:34;;;;;;;3.55;2.22;;;;;;;4.15;88.41;99256.23;1699230;82;21491;-81
2021/12/17 10:23:08;;;;;;;4.90;2.42;;;;;;;4.12;88.08;99250.69;1728282;81;21141;-79
2021/12/17 10:25:38;;;;;;;5.35;3.27;;;;;;;4.09;88.32;99256.33;1739844;82;21090;-86
2021/12/17 10:28:06;;;;;;;12.45;9.70;;;;;;;4.09;87.99;99255.89;1725038;81;21501;-88
2021/12/17 10:30:35;;;;;;;3.33;2.22;;;;;;;4.12;88.27;99251.13;1739630;81;20967;-87
2021/12/17 10:33:06;;;;;;;4.17;2.72;;;;;;;4.14;88.28;99232.21;1738380;81;21060;-88
2021/12/17 10:35:35;;;;;;;3.83;2.67;;;;;;;4.20;87.72;99239.42;1712707;81;21865;-87
2021/12/17 10:38:08;;;;;;;8.48;5.05;;;;;;;4.24;87.26;99236.73;1733755;81;21106;-92
2021/12/17 10:41:03;;;;;;;4.53;1.42;;;;;;;4.30;86.19;99235.33;1733260;81;21100;-79
2021/12/17 10:43:36;;;;;;;3.00;1.12;;;;;;;4.32;85.30;99242.59;1727320;82;20974;-91
2021/12/17 10:46:10;;;;;;;1.95;1.05;;;;;;;4.30;84.51;99241.77;1729733;81;21023;-79
2021/12/17 10:51:45;;;;;;;3.02;0.98;;;;;;;4.30;83.38;99243.48;1729867;81;21112;-80
2021/12/17 10:54:15;;;;;;;2.00;0.85;;;;;;;4.26;81.97;99237.98;1688859;82;21039;-81
2021/12/17 10:56:53;;;;;;;1.27;0.85;;;;;;;4.19;81.64;99230.84;1714308;82;20949;-78
2021/12/17 10:59:31;;;;;;;30.45;18.07;;;;;;;4.13;81.58;99239.96;1706828;82;20975;-78
2021/12/17 11:02:04;;;;;;;7.55;4.90;;;;;;;4.05;83.47;99255.97;1695315;81;21160;-75
2021/12/17 11:04:31;;;;;;;5.20;2.90;;;;;;;3.94;85.26;99242.03;1709896;82;21082;-78
2021/12/17 11:07:16;;;;;;;2.45;1.30;;;;;;;3.79;85.93;99234.59;1709459;82;21118;-76
2021/12/17 11:09:54;;;;;;;1.70;1.00;;;;;;;3.69;86.69;99226.19;1692113;83;21032;-78
2021/12/17 11:12:38;;;;;;;3.47;1.50;;;;;;;3.69;87.08;99233.90;1704021;81;21423;-77
2021/12/17 11:15:24;;;;;;;3.20;1.12;;;;;;;3.72;86.94;99236.42;1722884;81;21607;-78
2021/12/17 11:18:00;;;;;;;1.87;0.90;;;;;;;3.77;86.23;99231.20;1701613;81;21387;-77
2021/12/17 11:20:33;;;;;;;2.47;0.90;;;;;;;3.80;85.31;99229.83;1711782;82;21087;-76
2021/12/17 11:23:06;;;;;;;2.52;1.10;;;;;;;3.81;85.26;99228.96;1700115;83;21723;-78
2021/12/17 11:25:33;;;;;;;3.33;1.07;;;;;;;3.83;85.46;99231.07;1704672;81;20988;-78
2021/12/17 11:28:00;;;;;;;2.55;1.27;;;;;;;3.85;85.17;99232.33;1690888;82;21222;-78
2021/12/17 11:30:31;;;;;;;3.95;1.95;;;;;;;3.84;84.52;99226.34;1716603;81;21009;-78
2021/12/17 11:33:01;;;;;;;3.40;1.82;;;;;;;3.85;85.07;99219.47;1708563;81;21085;-77
2021/12/17 11:35:30;;;;;;;2.77;1.30;;;;;;;3.86;85.30;99225.88;1720994;82;21011;-77
2021/12/17 11:38:01;;;;;;;3.05;1.50;;;;;;;3.90;85.07;99236.53;1728066;81;21545;-77
2021/12/17 11:40:35;;;;;;;1.60;1.00;;;;;;;3.94;84.98;99241.19;1724405;82;21776;-79
2021/12/17 11:43:52;;;;;;;2.42;1.45;;;;;;;3.94;85.05;99230.45;1727051;81;20958;-77
2021/12/17 11:46:34;;;;;;;4.22;2.45;;;;;;;3.94;84.94;99231.73;1720740;82;21172;-78
2021/12/17 11:49:04;;;;;;;5.87;3.15;;;;;;;3.96;84.61;99225.28;1723436;81;21434;-78
2021/12/17 11:51:33;;;;;;;3.05;1.80;;;;;;;3.93;84.21;99235.19;1721712;82;20958;-78
2021/12/17 11:54:13;;;;;;;2.52;1.50;;;;;;;3.90;83.73;99238.25;1716697;82;21131;-78
2021/12/17 11:56:48;;;;;;;2.35;1.35;;;;;;;3.85;83.70;99239.61;1726258;81;20977;-78
2021/12/17 11:59:32;;;;;;;2.40;1.20;;;;;;;3.83;84.09;99238.79;1726965;81;21196;-78
2021/12/17 12:02:24;;;;;;;2.17;1.00;;;;;;;3.83;84.05;99229.78;1711795;82;20974;-77
2021/12/17 12:05:01;;;;;;;2.12;1.00;;;;;;;3.81;83.89;99234.11;1704545;81;20954;-76
2021/12/17 12:07:33;;;;;;;1.47;0.57;;;;;;;3.78;83.69;99232.47;1707547;82;21164;-77
2021/12/17 12:10:19;;;;;;;1.98;0.88;;;;;;;3.78;83.35;99230.33;1710567;80;21033;-77
2021/12/17 12:12:50;;;;;;;1.40;0.80;;;;;;;3.76;82.85;99232.08;1725995;82;26878;-77
2021/12/17 12:15:27;;;;;;;1.62;0.82;;;;;;;3.73;82.90;99236.84;1721806;81;21174;-78
2021/12/17 12:18:10;;;;;;;1.00;0.60;;;;;;;3.75;83.27;99238.09;1701741;82;21565;-77
2021/12/17 12:20:49;;;;;;;4.90;2.60;;;;;;;3.76;82.82;99236.78;1729262;81;21248;-77
2021/12/17 12:23:33;;;;;;;4.30;1.85;;;;;;;3.77;82.39;99244.06;1719344;81;21015;-76
2021/12/17 12:26:15;;;;;;;2.05;1.00;;;;;;;3.79;81.88;99238.45;1681216;82;20963;-77
2021/12/17 12:28:56;;;;;;;2.52;0.75;;;;;;;3.80;82.91;99240.13;1701872;82;20959;-77
2021/12/17 12:31:34;;;;;;;3.37;1.75;;;;;;;3.82;83.47;99249.95;1716049;82;21023;-79
2021/12/17 12:34:06;;;;;;;1.87;1.20;;;;;;;3.82;83.88;99255.09;1708709;82;21163;-78
2021/12/17 12:37:09;;;;;;;2.62;1.00;;;;;;;3.76;84.44;99248.36;1723352;81;20961;-77
2021/12/17 12:39:42;;;;;;;2.00;1.02;;;;;;;3.73;83.87;99260.42;1722643;82;21037;-76
2021/12/17 12:42:14;;;;;;;4.20;0.90;;;;;;;3.67;83.43;99256.22;1719519;82;21597;-76
2021/12/17 12:44:50;;;;;;;3.10;1.10;;;;;;;3.62;83.74;99256.73;1693490;83;20962;-76
2021/12/17 12:47:37;;;;;;;1.80;0.78;;;;;;;3.59;84.25;99255.52;1719300;81;21692;-76
2021/12/17 12:50:11;;;;;;;1.55;1.07;;;;;;;3.57;84.04;99266.27;1712680;81;20957;-76
2021/12/17 12:53:05;;;;;;;1.72;0.93;;;;;;;3.54;83.50;99261.17;1682375;83;21263;-76
2021/12/17 12:55:37;;;;;;;5.22;1.10;;;;;;;3.51;83.15;99264.22;1709710;83;21620;-78
2021/12/17 12:58:19;;;;;;;0.68;0.50;;;;;;;3.42;82.74;99267.34;1712975;82;21476;-78
2021/12/17 13:00:59;;;;;;;1.32;0.75;;;;;;;3.38;82.52;99265.72;1682049;83;21481;-79
2021/12/17 13:03:30;;;;;;;1.50;0.78;;;;;;;3.38;82.57;99270.86;1705548;82;21361;-78
2021/12/17 13:05:59;;;;;;;2.33;1.10;;;;;;;3.37;82.83;99274.30;1684095;83;21526;-78
2021/12/17 13:08:30;;;;;;;1.40;0.65;;;;;;;3.34;83.03;99270.92;1712575;82;21214;-78
2021/12/17 13:11:01;;;;;;;1.42;0.78;;;;;;;3.31;83.24;99269.24;1734457;81;21042;-78
2021/12/17 13:16:07;;;;;;;2.27;0.70;;;;;;;3.33;83.76;99266.66;1723526;80;21135;-79
2021/12/17 13:24:15;;;;;;;1.90;0.90;;;;;;;3.41;84.41;99294.36;1662925;83;38754;-78
2021/12/17 13:27:02;;;;;;;1.27;0.55;;;;;;;3.30;85.36;99291.11;1710364;82;21224;-82
2021/12/17 13:29:39;;;;;;;1.30;0.80;;;;;;;3.00;86.51;99294.95;1718568;81;21076;-81
2021/12/17 13:32:12;;;;;;;1.40;0.80;;;;;;;2.68;88.25;99297.53;1727088;81;21172;-80
2021/12/17 13:34:51;;;;;;;3.25;0.82;;;;;;;2.45;89.73;99296.09;1713585;82;21044;-80
2021/12/17 13:37:26;;;;;;;1.65;0.80;;;;;;;2.32;90.80;99292.83;1714140;82;21477;-79
2021/12/17 13:40:07;;;;;;;0.85;0.60;;;;;;;2.25;91.77;99281.77;1710775;81;21128;-81
2021/12/17 13:42:37;;;;;;;3.52;0.88;;;;;;;2.23;92.41;99280.09;1712586;82;20983;-80
2021/12/17 13:45:20;;;;;;;1.37;0.62;;;;;;;2.22;93.07;99287.37;1629167;85;21113;-80
2021/12/17 13:47:54;;;;;;;1.30;1.20;;;;;;;2.20;93.27;99286.09;1670047;84;21184;-81
2021/12/17 13:50:34;;;;;;;1.40;0.70;;;;;;;2.19;93.86;99272.03;1653281;84;21900;-82
2021/12/17 13:53:08;;;;;;;1.10;0.80;;;;;;;2.22;94.12;99279.67;1676655;83;21841;-81
2021/12/17 13:55:39;;;;;;;2.12;1.27;;;;;;;2.24;94.31;99280.51;1693173;83;21147;-80
2021/12/17 13:58:13;;;;;;;1.87;1.12;;;;;;;2.25;94.56;99276.64;1686356;83;21052;-80
2021/12/17 14:00:47;;;;;;;3.40;1.52;;;;;;;2.27;94.73;99274.91;1662052;85;21463;-80
2021/12/17 14:03:16;;;;;;;5.22;2.87;;;;;;;2.31;94.82;99270.60;1687327;83;21054;-80
2021/12/17 14:05:50;;;;;;;7.83;4.65;;;;;;;2.35;94.56;99276.13;1689814;83;21148;-79
2021/12/17 14:08:17;;;;;;;10.23;6.97;;;;;;;2.38;94.51;99276.09;1691484;83;20963;-80
2021/12/17 14:10:44;;;;;;;13.38;9.63;;;;;;;2.39;94.73;99276.51;1637720;85;22123;-79
2021/12/17 14:13:21;;;;;;;15.80;11.97;;;;;;;2.41;94.48;99280.73;1631071;86;20920;-79
2021/12/17 14:15:48;;;;;;;15.70;10.32;;;;;;;2.41;94.50;99287.58;1653496;86;21012;-80
2021/12/17 14:18:19;;;;;;;11.35;7.67;;;;;;;2.43;94.46;99281.99;1657872;86;21016;-80
2021/12/17 14:20:53;;;;;;;12.37;7.03;;;;;;;2.45;94.35;99292.25;1675694;83;21022;-79
2021/12/17 14:23:22;;;;;;;6.95;5.00;;;;;;;2.47;94.65;99284.09;1685933;82;21010;-80
2021/12/17 14:25:59;;;;;;;8.10;4.00;;;;;;;2.53;94.52;99284.03;1717897;82;21072;-80
2021/12/17 14:28:30;;;;;;;5.40;3.55;;;;;;;2.56;94.20;99287.42;1716086;83;21037;-79
2021/12/17 14:31:09;;;;;;;7.87;3.50;;;;;;;2.59;93.59;99293.80;1719972;83;21006;-79
2021/12/17 14:33:39;;;;;;;6.85;3.27;;;;;;;2.60;93.12;99292.09;1662931;84;21477;-79
2021/12/17 14:36:11;;;;;;;5.53;2.90;;;;;;;2.61;93.03;99298.89;1687930;83;20982;-79
2021/12/17 14:38:48;;;;;;;5.55;2.65;;;;;;;2.60;92.85;99294.66;1712385;83;21058;-79
2021/12/17 14:41:24;;;;;;;1.25;1.00;;;;;;;2.61;92.50;99293.76;1701508;83;21002;-78
2021/12/17 14:43:56;;;;;;;1.02;0.80;;;;;;;2.61;91.51;99291.19;1716696;82;21170;-79